Terminal Aerodrome Forecast
Issued by NWS

Home | Current Version | Previous Version | Text Only | Print | Product List | Glossary On
Versions: 1 2 3 4 5 6 7 8 9 10 11 12 13 14 15 16 17 18 19 20
000
FTUS43 KSGF 011500 AAB
TAFBBG
TAF AMD
KBBG 011509Z 0115/0212 VRB04KT 1SM BR OVC003
      TEMPO 0115/0117 1/4SM FZFG
     FM011700 32005KT 3SM BR OVC003
     FM012100 VRB04KT 5SM BR OVC007=

USA.gov is the U.S. government's official web portal to all federal, state and local government web resources and services.